Accueil
METAR-TAF:

METAR-TAF

Aéroports :

Cherbourg, France

Aéroport de Cherbourg - Maupertus

latitude: 49-39N, longitude: 001-28W, altitude: 138 m

Observation

Le bulletin a été fait il y a 40 minutes, à 06:00 UTC
Vent 5 kt de sud-ouest
Température 14°C
Humidité 100%
Pression 1018 hPa
Visibilité 10 km ou plus
Quelques nuages à une hauteur de 3200 ft

METAR: LFRC 240600Z AUTO 22005KT 9999 FEW032 14/14 Q1018 NOSIG

Heure: 08:40 (06:40 UTC)

Prévision

Le bulletin a été fait il y a 1 heure et 40 minutes, à 05:00 UTC
Prévision valable du 24 à 06 UTC au 24 à 15 UTC
Vent 6 kt de ouest
Visibilité 10 km ou plus
Nuages fragmentés à une hauteur de 4000 ft

TAF: LFRC 240500Z 2406/2415 27006KT 9999 BKN040

Observations et prévisions météorologiques de plus de 4000 aéroports (messages METAR et TAF).

Les stations disponibles sont représentées par des disques jaunes et rouges sur la carte.

Passer la souris dessus pour voir le nom de la station.

Cliquer dessus pour voir les observations et prévisions météorologiques.

Pour changer de carte: cliquez sur les boutons verts avec une croix noire pour zoomer, sur le bouton vert avec un tiret pour effectuer un zoom arrière, ou sur les flèches vertes pour les cartes adjacentes.


METAR-TAF: